Terminal Aerodrome Forecast
Issued by NWS Sioux Falls, SD

Home | Current Version | Previous Version | Graphics & Text | Print | Product List | Glossary On
Versions: 1 2 3 4 5 6 7 8 9 10 11 12 13
000
FTUS43 KFSD 211720
TAFHON
TAF
KHON 211720Z 2118/2218 19007KT P6SM SKC
     FM220000 14006KT P6SM SKC
     FM220600 15009KT P6SM SKC WS015/20040KT
     FM221200 17010KT P6SM SKC=

USA.gov is the U.S. government's official web portal to all federal, state and local government web resources and services.